createdAt,value
2022-12-08T00:02:06.644Z,2.90
2022-12-08T00:04:54.917Z,2.90
2022-12-08T00:07:40.704Z,2.90
2022-12-08T00:10:39.695Z,2.90
2022-12-08T00:12:58.255Z,2.90
2022-12-08T00:15:28.222Z,2.90
2022-12-08T00:17:56.375Z,2.90
2022-12-08T00:20:24.426Z,2.90
2022-12-08T00:22:52.624Z,2.90
2022-12-08T00:25:20.813Z,2.90
2022-12-08T00:27:48.896Z,2.90
2022-12-08T00:30:17.200Z,3.00
2022-12-08T00:32:46.744Z,3.00
2022-12-08T00:35:15.068Z,3.00
2022-12-08T00:37:43.146Z,3.00
2022-12-08T00:40:11.813Z,3.00
2022-12-08T00:42:39.926Z,3.00
2022-12-08T00:45:08.982Z,2.90
2022-12-08T00:47:37.070Z,3.00
2022-12-08T00:50:08.089Z,2.90
2022-12-08T00:52:38.459Z,3.00
2022-12-08T00:55:07.325Z,3.00
2022-12-08T00:57:35.516Z,3.00
2022-12-08T01:00:04.122Z,3.00
2022-12-08T01:02:34.395Z,3.00
2022-12-08T01:05:02.648Z,3.00
2022-12-08T01:07:32.089Z,3.00
2022-12-08T01:10:00.245Z,3.00
2022-12-08T01:12:30.520Z,3.00
2022-12-08T01:15:02.287Z,3.00
2022-12-08T01:17:30.949Z,3.00
2022-12-08T01:20:02.949Z,3.00
2022-12-08T01:22:34.430Z,3.00
2022-12-08T01:25:02.605Z,3.00
2022-12-08T01:27:30.657Z,3.00
2022-12-08T01:30:01.313Z,3.00
2022-12-08T01:32:30.435Z,3.00
2022-12-08T01:34:58.538Z,3.00
2022-12-08T01:37:26.603Z,3.00
2022-12-08T01:39:56.151Z,3.10
2022-12-08T01:42:24.844Z,3.00
2022-12-08T01:44:59.639Z,2.90
2022-12-08T01:47:32.935Z,3.00
2022-12-08T01:50:01.643Z,2.90
2022-12-08T01:52:35.035Z,2.90
2022-12-08T01:55:08.260Z,2.90
2022-12-08T01:57:41.043Z,2.90
2022-12-08T02:00:11.950Z,2.90
2022-12-08T02:02:47.445Z,2.90
2022-12-08T02:05:16.206Z,2.90
2022-12-08T02:07:45.760Z,2.90
2022-12-08T02:10:19.513Z,2.90
2022-12-08T02:12:49.152Z,2.80
2022-12-08T02:15:17.590Z,2.80
2022-12-08T02:17:59.942Z,2.80
2022-12-08T02:20:54.862Z,2.80
2022-12-08T02:23:32.966Z,2.80
2022-12-08T02:26:36.680Z,2.80
2022-12-08T02:29:40.749Z,2.80
2022-12-08T02:32:24.865Z,2.80
2022-12-08T02:35:00.210Z,2.80
2022-12-08T02:37:32.453Z,2.80
2022-12-08T02:40:08.567Z,2.80
2022-12-08T02:42:43.254Z,2.80
2022-12-08T02:45:15.695Z,2.80
2022-12-08T02:47:45.011Z,2.70
2022-12-08T02:50:14.780Z,2.80
2022-12-08T02:52:45.946Z,2.60
2022-12-08T02:55:24.211Z,2.70
2022-12-08T02:58:28.690Z,2.60
2022-12-08T03:01:15.798Z,2.70
2022-12-08T03:03:52.287Z,2.60
2022-12-08T03:06:29.830Z,2.70
2022-12-08T03:09:02.827Z,2.60
2022-12-08T03:11:38.854Z,2.60
2022-12-08T03:14:08.726Z,2.60
2022-12-08T03:16:42.440Z,2.60
2022-12-08T03:19:14.763Z,2.60
2022-12-08T03:21:46.123Z,2.60
2022-12-08T03:24:16.417Z,2.50
2022-12-08T03:26:48.321Z,2.50
2022-12-08T03:29:16.957Z,2.50
2022-12-08T03:31:51.102Z,2.50
2022-12-08T03:34:20.145Z,2.40
2022-12-08T03:36:49.534Z,2.40
2022-12-08T03:39:17.972Z,2.40
2022-12-08T03:41:46.818Z,2.40
2022-12-08T03:44:14.964Z,2.40
2022-12-08T03:46:43.074Z,2.40
2022-12-08T03:49:11.246Z,2.40
2022-12-08T03:51:39.362Z,2.40
2022-12-08T03:54:08.805Z,2.40
2022-12-08T03:56:39.033Z,2.40
2022-12-08T03:59:09.758Z,2.50
2022-12-08T04:01:37.915Z,2.40
2022-12-08T04:04:06.288Z,2.40
2022-12-08T04:06:37.070Z,2.50
2022-12-08T04:09:05.486Z,2.40
2022-12-08T04:11:35.011Z,2.40
2022-12-08T04:14:03.050Z,2.40
2022-12-08T04:16:31.347Z,2.30
2022-12-08T04:18:59.476Z,2.40
2022-12-08T04:21:27.593Z,2.30
2022-12-08T04:24:00.746Z,2.30
2022-12-08T04:26:29.518Z,2.30
2022-12-08T04:28:59.058Z,2.40
2022-12-08T04:31:27.254Z,2.40
2022-12-08T04:33:55.378Z,2.40
2022-12-08T04:36:23.454Z,2.40
2022-12-08T04:38:51.568Z,2.40
2022-12-08T04:41:19.714Z,2.40
2022-12-08T04:43:47.833Z,2.40
2022-12-08T04:46:17.436Z,2.40
2022-12-08T04:48:47.747Z,2.40
2022-12-08T04:51:17.891Z,2.50
2022-12-08T04:53:47.101Z,2.50
2022-12-08T04:56:15.681Z,2.50
2022-12-08T04:58:43.825Z,2.50
2022-12-08T05:01:12.351Z,2.50
2022-12-08T05:03:41.839Z,2.40
2022-12-08T05:06:13.516Z,2.40
2022-12-08T05:08:45.084Z,2.40
2022-12-08T05:11:14.447Z,2.50
2022-12-08T05:13:42.609Z,2.40
2022-12-08T05:16:12.381Z,2.40
2022-12-08T05:18:43.323Z,2.40
2022-12-08T05:21:11.544Z,2.50
2022-12-08T05:23:39.950Z,2.40
2022-12-08T05:26:08.241Z,2.40
2022-12-08T05:28:44.227Z,2.40
2022-12-08T05:31:13.099Z,2.30
2022-12-08T05:33:43.034Z,2.30
2022-12-08T05:36:13.054Z,2.30
2022-12-08T05:38:41.787Z,2.30
2022-12-08T05:41:10.212Z,2.20
2022-12-08T05:43:38.344Z,2.30
2022-12-08T05:46:06.792Z,2.30
2022-12-08T05:48:35.159Z,2.30
2022-12-08T05:51:05.370Z,2.30
2022-12-08T05:53:33.463Z,2.20
2022-12-08T05:56:04.880Z,2.20
2022-12-08T05:58:32.982Z,2.20
2022-12-08T06:01:01.122Z,2.10
2022-12-08T06:03:29.322Z,2.20
2022-12-08T06:05:57.846Z,2.20
2022-12-08T06:08:27.369Z,2.20
2022-12-08T06:10:55.676Z,2.10
2022-12-08T06:13:23.776Z,2.10
2022-12-08T06:15:51.879Z,2.10
2022-12-08T06:18:20.026Z,2.10
2022-12-08T06:20:48.095Z,2.10
2022-12-08T06:23:16.274Z,2.10
2022-12-08T06:25:45.689Z,2.10
2022-12-08T06:28:13.764Z,2.20
2022-12-08T06:30:41.930Z,2.20
2022-12-08T06:33:10.081Z,2.20
2022-12-08T06:35:38.719Z,2.20
2022-12-08T06:38:06.838Z,2.20
2022-12-08T06:40:34.949Z,2.30
2022-12-08T06:43:04.442Z,2.30
2022-12-08T06:45:32.582Z,2.30
2022-12-08T06:48:02.658Z,2.40
2022-12-08T06:50:30.820Z,2.40
2022-12-08T06:53:05.256Z,2.50
2022-12-08T06:58:23.676Z,2.50
2022-12-08T07:00:51.830Z,2.50
2022-12-08T07:03:19.989Z,2.50
2022-12-08T07:05:48.129Z,2.50
2022-12-08T07:08:16.396Z,2.60
2022-12-08T07:10:44.661Z,2.60
2022-12-08T07:13:12.888Z,2.60
2022-12-08T07:15:42.389Z,2.60
2022-12-08T07:18:10.536Z,2.70
2022-12-08T07:20:39.006Z,2.60
2022-12-08T07:23:09.603Z,2.70
2022-12-08T07:25:37.653Z,2.70
2022-12-08T07:28:10.775Z,2.80
2022-12-08T07:30:39.470Z,2.70
2022-12-08T07:33:09.019Z,2.80
2022-12-08T07:35:37.155Z,2.80
2022-12-08T07:38:05.345Z,2.90
2022-12-08T07:40:33.436Z,2.90
2022-12-08T07:43:01.515Z,2.90
2022-12-08T07:45:32.022Z,3.00
2022-12-08T07:48:00.419Z,3.00
2022-12-08T07:50:29.900Z,3.10
2022-12-08T07:52:58.111Z,3.10
2022-12-08T07:55:26.731Z,3.10
2022-12-08T07:57:54.849Z,3.20
2022-12-08T08:00:23.125Z,3.10
2022-12-08T08:02:51.358Z,3.20
2022-12-08T08:05:20.744Z,3.10
2022-12-08T08:07:50.303Z,3.20
2022-12-08T08:10:18.987Z,3.20
2022-12-08T08:12:50.053Z,3.30
2022-12-08T08:15:19.367Z,3.30
2022-12-08T08:17:50.914Z,3.50
2022-12-08T08:20:22.332Z,3.60
2022-12-08T08:22:52.557Z,3.60
2022-12-08T08:25:23.485Z,3.60
2022-12-08T08:27:55.614Z,3.70
2022-12-08T08:30:23.960Z,3.70
2022-12-08T08:32:54.771Z,3.80
2022-12-08T08:35:22.981Z,3.90
2022-12-08T08:37:54.943Z,4.00
2022-12-08T08:40:26.697Z,4.20
2022-12-08T08:42:54.837Z,4.60
2022-12-08T08:45:23.022Z,5.10
2022-12-08T08:47:51.108Z,5.60
2022-12-08T08:50:19.248Z,6.10
2022-12-08T08:52:47.294Z,6.60
2022-12-08T08:55:16.828Z,7.10
2022-12-08T08:57:45.290Z,7.50
2022-12-08T09:00:14.702Z,7.80
2022-12-08T09:02:42.862Z,8.20
2022-12-08T09:05:11.200Z,8.30
2022-12-08T09:07:39.373Z,8.40
2022-12-08T09:10:11.001Z,8.50
2022-12-08T09:12:40.448Z,8.50
2022-12-08T09:15:09.132Z,8.50
2022-12-08T09:17:38.283Z,8.30
2022-12-08T09:20:08.213Z,8.30
2022-12-08T09:22:37.273Z,8.30
2022-12-08T09:25:05.864Z,8.40
2022-12-08T09:27:34.042Z,8.30
2022-12-08T09:30:03.752Z,8.30
2022-12-08T09:32:31.992Z,8.30
2022-12-08T09:35:01.245Z,8.40
2022-12-08T09:37:29.373Z,8.40
2022-12-08T09:39:57.644Z,8.30
2022-12-08T09:42:35.398Z,8.30
2022-12-08T09:45:10.251Z,8.30
2022-12-08T09:47:43.812Z,8.30
2022-12-08T09:50:16.755Z,8.40
2022-12-08T09:52:48.512Z,8.50
2022-12-08T09:55:25.544Z,8.50
2022-12-08T09:58:01.902Z,8.50
2022-12-08T10:00:31.560Z,8.40
2022-12-08T10:03:00.214Z,8.40
2022-12-08T10:05:31.375Z,8.40
2022-12-08T10:08:09.549Z,8.40
2022-12-08T10:10:41.047Z,8.30
2022-12-08T10:13:21.399Z,8.20
2022-12-08T10:15:59.433Z,8.00
2022-12-08T10:18:30.859Z,7.90
2022-12-08T10:21:06.281Z,7.70
2022-12-08T10:23:37.340Z,7.60
2022-12-08T10:26:07.446Z,7.50
2022-12-08T10:28:41.376Z,7.60
2022-12-08T10:31:25.670Z,7.50
2022-12-08T10:34:01.202Z,7.40
2022-12-08T10:36:51.843Z,7.30
2022-12-08T10:39:34.898Z,7.20
2022-12-08T10:42:08.141Z,7.10
2022-12-08T10:44:48.341Z,7.00
2022-12-08T10:47:21.731Z,7.00
2022-12-08T10:50:09.808Z,6.90
2022-12-08T10:52:42.098Z,6.80
2022-12-08T10:55:16.319Z,6.70
2022-12-08T10:57:44.633Z,6.70
2022-12-08T11:00:17.664Z,6.60
2022-12-08T11:02:58.215Z,6.60
2022-12-08T11:05:30.572Z,6.60
2022-12-08T11:07:59.240Z,6.50
2022-12-08T11:10:35.644Z,6.50
2022-12-08T11:13:06.115Z,6.50
2022-12-08T11:15:38.974Z,6.40
2022-12-08T11:18:26.907Z,6.40
2022-12-08T11:21:07.266Z,6.30
2022-12-08T11:23:38.264Z,6.20
2022-12-08T11:26:13.829Z,6.20
2022-12-08T11:28:42.012Z,6.10
2022-12-08T11:31:20.519Z,6.00
2022-12-08T11:33:51.600Z,5.90
2022-12-08T11:36:23.687Z,5.90
2022-12-08T11:38:58.073Z,5.90
2022-12-08T11:41:31.169Z,5.90
2022-12-08T11:44:07.248Z,5.90
2022-12-08T11:46:41.509Z,5.90
2022-12-08T11:49:18.147Z,5.90
2022-12-08T11:51:54.211Z,5.90
2022-12-08T11:54:26.320Z,5.90
2022-12-08T11:56:56.879Z,5.90
2022-12-08T11:59:30.403Z,5.80
2022-12-08T12:02:03.621Z,5.80
2022-12-08T12:04:39.813Z,5.80
2022-12-08T12:07:37.338Z,5.70
2022-12-08T12:10:35.274Z,5.70
2022-12-08T12:13:19.592Z,5.60
2022-12-08T12:16:31.164Z,5.50
2022-12-08T12:19:02.664Z,5.50
2022-12-08T12:21:38.260Z,5.30
2022-12-08T12:24:08.857Z,5.30
2022-12-08T12:26:39.531Z,5.40
2022-12-08T12:29:19.684Z,5.20
2022-12-08T12:31:58.401Z,5.20
2022-12-08T12:34:29.756Z,5.20
2022-12-08T12:37:06.855Z,5.20
2022-12-08T12:39:47.207Z,5.10
2022-12-08T12:42:41.044Z,5.20
2022-12-08T12:45:27.187Z,5.20
2022-12-08T12:48:22.590Z,5.20
2022-12-08T12:50:51.861Z,5.20
2022-12-08T12:53:50.723Z,5.20
2022-12-08T12:56:57.548Z,5.20
2022-12-08T12:59:50.119Z,5.20
2022-12-08T13:02:25.747Z,5.20
2022-12-08T13:05:00.717Z,5.20
2022-12-08T13:07:32.080Z,5.20
2022-12-08T13:10:05.080Z,5.10
2022-12-08T13:12:36.023Z,5.10
2022-12-08T13:15:06.733Z,5.10
2022-12-08T13:17:38.495Z,5.00
2022-12-08T13:20:21.482Z,5.00
2022-12-08T13:23:43.782Z,5.00
2022-12-08T13:26:19.656Z,5.00
2022-12-08T13:29:15.045Z,5.00
2022-12-08T13:31:50.466Z,5.00
2022-12-08T13:34:24.331Z,5.00
2022-12-08T13:37:02.202Z,5.10
2022-12-08T13:39:37.730Z,5.00
2022-12-08T13:42:14.213Z,5.00
2022-12-08T13:47:54.355Z,4.90
2022-12-08T13:59:11.636Z,4.90
2022-12-08T14:01:45.849Z,4.90
2022-12-08T14:04:42.462Z,4.90
2022-12-08T14:07:07.498Z,4.90
2022-12-08T14:09:38.364Z,4.80
2022-12-08T14:12:09.618Z,4.80
2022-12-08T14:17:35.615Z,4.70
2022-12-08T14:20:07.472Z,4.70
2022-12-08T14:22:37.585Z,4.70
2022-12-08T14:25:09.382Z,4.60
2022-12-08T14:27:38.830Z,4.70
2022-12-08T14:30:17.878Z,4.60
2022-12-08T14:32:49.146Z,4.70
2022-12-08T14:35:23.416Z,4.60
2022-12-08T14:37:55.224Z,4.60
2022-12-08T14:40:26.126Z,4.60
2022-12-08T14:43:12.568Z,4.60
2022-12-08T14:45:49.336Z,4.60
2022-12-08T14:48:26.510Z,4.60
2022-12-08T14:51:05.331Z,4.70
2022-12-08T14:53:40.654Z,4.70
2022-12-08T14:56:13.181Z,4.60
2022-12-08T14:58:41.517Z,4.60
2022-12-08T15:01:14.979Z,4.70
2022-12-08T15:03:48.867Z,4.60
2022-12-08T15:06:23.039Z,4.60
2022-12-08T15:08:58.702Z,4.60
2022-12-08T15:11:34.139Z,4.60
2022-12-08T15:14:02.852Z,4.60
2022-12-08T15:16:40.273Z,4.60
2022-12-08T15:19:19.187Z,4.60
2022-12-08T15:21:48.078Z,4.60
2022-12-08T15:24:16.872Z,4.60
2022-12-08T15:26:49.483Z,4.60
2022-12-08T15:29:22.663Z,4.60
2022-12-08T15:31:53.577Z,4.50
2022-12-08T15:34:22.275Z,4.50
2022-12-08T15:36:52.186Z,4.60
2022-12-08T15:39:28.649Z,4.60
2022-12-08T15:41:56.986Z,4.60
2022-12-08T15:44:25.235Z,4.60
2022-12-08T15:46:55.499Z,4.60
2022-12-08T15:49:25.238Z,4.60
2022-12-08T15:52:03.443Z,4.60
2022-12-08T15:54:38.436Z,4.80
2022-12-08T15:59:54.891Z,4.70
2022-12-08T16:02:25.349Z,4.70
2022-12-08T16:05:40.116Z,4.70
2022-12-08T16:07:42.540Z,4.70
2022-12-08T16:10:17.397Z,4.70
2022-12-08T16:16:00.844Z,4.70
2022-12-08T16:18:34.240Z,4.80
2022-12-08T16:21:12.372Z,4.80
2022-12-08T16:23:50.834Z,4.80
2022-12-08T16:27:21.907Z,4.80
2022-12-08T16:29:10.979Z,4.80
2022-12-08T16:31:39.225Z,4.80
2022-12-08T16:34:08.703Z,4.70
2022-12-08T16:36:36.859Z,4.70
2022-12-08T16:39:05.206Z,4.70
2022-12-08T16:41:50.580Z,4.70
2022-12-08T16:44:18.889Z,4.70
2022-12-08T16:46:47.053Z,4.70
2022-12-08T16:49:16.662Z,4.70
2022-12-08T16:51:44.909Z,4.60
2022-12-08T16:54:13.050Z,4.60
2022-12-08T16:56:41.167Z,4.60
2022-12-08T16:59:09.302Z,4.60
2022-12-08T17:01:37.687Z,4.70
2022-12-08T17:06:55.793Z,4.70
2022-12-08T17:09:23.842Z,4.70
2022-12-08T17:11:52.109Z,4.70
2022-12-08T17:14:20.269Z,4.70
2022-12-08T17:16:48.503Z,4.70
2022-12-08T17:19:17.455Z,4.70
2022-12-08T17:21:45.724Z,4.70
2022-12-08T17:24:20.239Z,4.70
2022-12-08T17:26:51.951Z,4.70
2022-12-08T17:29:20.195Z,4.70
2022-12-08T17:31:48.438Z,4.70
2022-12-08T17:34:18.770Z,4.70
2022-12-08T17:36:47.031Z,4.70
2022-12-08T17:39:18.952Z,4.60
2022-12-08T17:41:47.658Z,4.60
2022-12-08T17:44:18.285Z,4.60
2022-12-08T17:46:52.196Z,4.60
2022-12-08T17:49:25.567Z,4.50
2022-12-08T17:51:55.992Z,4.60
2022-12-08T17:54:25.986Z,4.60
2022-12-08T17:56:54.322Z,4.50
2022-12-08T17:59:22.428Z,4.60
2022-12-08T18:01:52.586Z,4.60
2022-12-08T18:04:21.449Z,4.60
2022-12-08T18:06:49.970Z,4.60
2022-12-08T18:09:18.414Z,4.60
2022-12-08T18:11:48.019Z,4.50
2022-12-08T18:14:17.393Z,4.50
2022-12-08T18:16:47.567Z,4.60
2022-12-08T18:19:16.907Z,4.60
2022-12-08T18:21:45.299Z,4.60
2022-12-08T18:24:19.552Z,4.70
2022-12-08T18:26:49.551Z,4.60
2022-12-08T18:29:17.689Z,4.60
2022-12-08T18:31:45.994Z,4.60
2022-12-08T18:34:14.224Z,4.60
2022-12-08T18:36:42.339Z,4.60
2022-12-08T18:39:22.334Z,4.60
2022-12-08T18:41:51.951Z,4.60
2022-12-08T18:44:20.617Z,4.70
2022-12-08T18:46:48.998Z,4.70
2022-12-08T18:49:20.028Z,4.70
2022-12-08T18:51:48.843Z,4.70
2022-12-08T18:54:17.092Z,4.70
2022-12-08T18:56:47.553Z,4.70
2022-12-08T18:59:17.001Z,4.70
2022-12-08T19:01:45.258Z,4.70
2022-12-08T19:04:28.278Z,4.80
2022-12-08T19:06:57.745Z,4.80
2022-12-08T19:09:26.918Z,4.80
2022-12-08T19:11:55.410Z,4.70
2022-12-08T19:14:28.138Z,4.70
2022-12-08T19:16:57.666Z,4.70
2022-12-08T19:19:26.020Z,4.60
2022-12-08T19:21:54.399Z,4.60
2022-12-08T19:24:22.923Z,4.60
2022-12-08T19:26:51.688Z,4.50
2022-12-08T19:29:20.260Z,4.50
2022-12-08T19:31:50.026Z,4.40
2022-12-08T19:34:18.367Z,4.40
2022-12-08T19:36:46.719Z,4.30
2022-12-08T19:39:35.031Z,4.30
2022-12-08T19:42:20.933Z,4.40
2022-12-08T19:44:55.129Z,4.30
2022-12-08T19:47:26.891Z,4.20
2022-12-08T19:50:16.140Z,4.10
2022-12-08T19:52:45.545Z,4.10
2022-12-08T19:55:14.203Z,4.00
2022-12-08T19:57:42.405Z,4.00
2022-12-08T20:00:14.203Z,3.90
2022-12-08T20:02:46.376Z,3.90
2022-12-08T20:05:14.895Z,3.80
2022-12-08T20:07:43.302Z,3.80
2022-12-08T20:10:17.302Z,3.80
2022-12-08T20:12:47.869Z,3.80
2022-12-08T20:15:16.260Z,3.70
2022-12-08T20:17:45.763Z,3.70
2022-12-08T20:20:15.073Z,3.60
2022-12-08T20:22:45.236Z,3.60
2022-12-08T20:25:13.594Z,3.60
2022-12-08T20:27:42.329Z,3.50
2022-12-08T20:30:16.678Z,3.50
2022-12-08T20:32:49.068Z,3.50
2022-12-08T20:35:19.842Z,3.50
2022-12-08T20:37:48.133Z,3.50
2022-12-08T20:40:16.450Z,3.50
2022-12-08T20:42:44.566Z,3.50
2022-12-08T20:45:12.846Z,3.50
2022-12-08T20:47:40.949Z,3.40
2022-12-08T20:50:11.706Z,3.40
2022-12-08T20:52:40.360Z,3.50
2022-12-08T20:55:09.919Z,3.50
2022-12-08T20:57:38.278Z,3.40
2022-12-08T21:00:07.782Z,3.50
2022-12-08T21:02:39.319Z,3.30
2022-12-08T21:05:11.423Z,3.30
2022-12-08T21:07:39.902Z,3.30
2022-12-08T21:10:11.993Z,3.30
2022-12-08T21:12:40.863Z,3.30
2022-12-08T21:15:13.255Z,3.30
2022-12-08T21:17:42.001Z,3.30
2022-12-08T21:20:15.159Z,3.20
2022-12-08T21:22:43.496Z,3.20
2022-12-08T21:25:11.653Z,3.20
2022-12-08T21:27:40.386Z,3.20
2022-12-08T21:30:10.275Z,3.20
2022-12-08T21:32:39.718Z,3.20
2022-12-08T21:35:09.305Z,3.20
2022-12-08T21:37:39.316Z,3.20
2022-12-08T21:40:10.577Z,3.20
2022-12-08T21:42:44.693Z,3.20
2022-12-08T21:45:14.824Z,3.20
2022-12-08T21:47:43.752Z,3.10
2022-12-08T21:50:13.965Z,3.10
2022-12-08T21:52:47.964Z,3.10
2022-12-08T21:55:19.103Z,3.10
2022-12-08T21:57:47.539Z,3.00
2022-12-08T22:00:17.737Z,3.00
2022-12-08T22:02:47.085Z,3.00
2022-12-08T22:05:15.564Z,3.00
2022-12-08T22:07:47.950Z,3.00
2022-12-08T22:10:16.167Z,3.00
2022-12-08T22:12:44.709Z,2.90
2022-12-08T22:15:14.132Z,2.90
2022-12-08T22:17:45.281Z,2.90
2022-12-08T22:20:15.883Z,2.90
2022-12-08T22:22:48.808Z,2.90
2022-12-08T22:25:18.447Z,2.80
2022-12-08T22:27:46.675Z,2.90
2022-12-08T22:30:15.166Z,2.80
2022-12-08T22:32:43.757Z,2.80
2022-12-08T22:35:12.183Z,2.80
2022-12-08T22:37:40.487Z,2.70
2022-12-08T22:40:09.948Z,2.80
2022-12-08T22:42:40.148Z,2.70
2022-12-08T22:45:15.294Z,2.70
2022-12-08T22:47:43.446Z,2.70
2022-12-08T22:50:12.526Z,2.70
2022-12-08T22:52:40.825Z,2.70
2022-12-08T22:55:09.976Z,2.60
2022-12-08T22:57:39.697Z,2.60
2022-12-08T23:00:11.614Z,2.60
2022-12-08T23:02:42.573Z,2.60
2022-12-08T23:05:11.705Z,2.60
2022-12-08T23:07:40.780Z,2.60
2022-12-08T23:10:10.915Z,2.60
2022-12-08T23:12:40.646Z,2.60
2022-12-08T23:15:09.725Z,2.60
2022-12-08T23:17:38.233Z,2.60
2022-12-08T23:20:08.279Z,2.60
2022-12-08T23:22:39.392Z,2.60
2022-12-08T23:25:09.060Z,2.60
2022-12-08T23:27:38.248Z,2.60
2022-12-08T23:30:10.309Z,2.60
2022-12-08T23:32:39.109Z,2.60
2022-12-08T23:35:08.978Z,2.50
2022-12-08T23:37:37.937Z,2.50
2022-12-08T23:40:07.965Z,2.50
2022-12-08T23:42:36.450Z,2.50
2022-12-08T23:45:05.482Z,2.50
2022-12-08T23:47:35.847Z,2.50
2022-12-08T23:50:05.229Z,2.50
2022-12-08T23:52:33.901Z,2.50
2022-12-08T23:55:02.190Z,2.50
2022-12-08T23:57:30.579Z,2.40
2022-12-08T23:59:58.844Z,2.50
